createdAt,value
2018-08-30T00:01:12.530Z,5.20
2018-08-30T00:03:40.421Z,5.27
2018-08-30T00:06:08.293Z,5.67
2018-08-30T00:08:36.166Z,5.30
2018-08-30T00:11:04.577Z,5.77
2018-08-30T00:13:32.525Z,5.63
2018-08-30T00:16:00.382Z,5.80
2018-08-30T00:18:28.256Z,5.40
2018-08-30T00:20:56.334Z,5.53
2018-08-30T00:23:24.188Z,6.60
2018-08-30T00:25:52.046Z,5.80
2018-08-30T00:28:19.956Z,5.40
2018-08-30T00:30:49.845Z,6.80
2018-08-30T00:33:17.895Z,6.67
2018-08-30T00:35:45.977Z,6.57
2018-08-30T00:38:14.415Z,5.80
2018-08-30T00:40:42.435Z,6.57
2018-08-30T00:43:10.924Z,7.03
2018-08-30T00:45:39.392Z,6.73
2018-08-30T00:48:07.282Z,5.90
2018-08-30T00:50:35.317Z,6.73
2018-08-30T00:53:03.147Z,6.50
2018-08-30T00:55:31.262Z,6.57
2018-08-30T00:57:59.117Z,5.50
2018-08-30T01:00:26.991Z,6.07
2018-08-30T01:02:54.864Z,6.53
2018-08-30T01:05:22.785Z,6.20
2018-08-30T01:07:50.766Z,6.10
2018-08-30T01:10:18.672Z,5.70
2018-08-30T01:12:52.078Z,5.00
2018-08-30T01:15:20.189Z,4.77
2018-08-30T01:17:48.598Z,5.10
2018-08-30T01:20:16.774Z,4.60
2018-08-30T01:22:44.837Z,4.33
2018-08-30T01:25:12.718Z,3.53
2018-08-30T01:27:40.769Z,3.70
2018-08-30T01:30:09.053Z,3.87
2018-08-30T01:32:36.997Z,4.10
2018-08-30T01:35:05.143Z,3.83
2018-08-30T01:37:33.051Z,3.93
2018-08-30T01:40:01.038Z,3.30
2018-08-30T01:42:29.059Z,3.90
2018-08-30T01:44:57.204Z,3.77
2018-08-30T01:47:25.445Z,3.90
2018-08-30T01:49:53.307Z,3.47
2018-08-30T01:52:21.246Z,3.40
2018-08-30T01:54:49.087Z,3.27
2018-08-30T01:57:16.949Z,3.20
2018-08-30T01:59:44.829Z,3.20
2018-08-30T02:02:13.990Z,3.53
2018-08-30T02:04:41.839Z,3.80
2018-08-30T02:07:09.705Z,4.30
2018-08-30T02:09:37.568Z,3.37
2018-08-30T02:12:05.424Z,3.90
2018-08-30T02:14:33.713Z,3.63
2018-08-30T02:17:01.823Z,3.70
2018-08-30T02:19:29.654Z,3.87
2018-08-30T02:21:57.581Z,4.17
2018-08-30T02:24:25.502Z,4.43
2018-08-30T02:26:53.830Z,3.50
2018-08-30T02:29:21.737Z,3.53
2018-08-30T02:31:49.572Z,4.23
2018-08-30T02:34:17.445Z,4.13
2018-08-30T02:36:45.968Z,4.63
2018-08-30T02:39:13.871Z,3.83
2018-08-30T02:41:41.787Z,4.17
2018-08-30T02:44:10.342Z,4.20
2018-08-30T02:46:38.167Z,4.20
2018-08-30T02:49:06.172Z,4.67
2018-08-30T02:51:34.562Z,4.87
2018-08-30T02:54:02.488Z,4.33
2018-08-30T02:56:30.905Z,4.53
2018-08-30T02:58:58.913Z,4.43
2018-08-30T03:01:26.800Z,4.60
2018-08-30T03:03:54.706Z,4.93
2018-08-30T03:06:22.778Z,4.57
2018-08-30T03:08:50.658Z,4.07
2018-08-30T03:11:19.145Z,4.87
2018-08-30T03:13:47.094Z,5.77
2018-08-30T03:16:14.918Z,5.23
2018-08-30T03:18:43.430Z,4.63
2018-08-30T03:21:11.302Z,5.60
2018-08-30T03:23:39.361Z,5.33
2018-08-30T03:26:07.461Z,5.20
2018-08-30T03:28:35.342Z,5.70
2018-08-30T03:31:03.287Z,4.97
2018-08-30T03:33:31.454Z,5.70
2018-08-30T03:36:01.276Z,5.73
2018-08-30T03:38:29.241Z,5.93
2018-08-30T03:40:57.366Z,6.10
2018-08-30T03:43:25.218Z,6.83
2018-08-30T03:45:53.225Z,7.33
2018-08-30T03:48:21.054Z,7.07
2018-08-30T03:50:49.002Z,7.77
2018-08-30T03:53:16.810Z,7.77
2018-08-30T03:55:45.628Z,8.50
2018-08-30T03:58:13.488Z,7.27
2018-08-30T04:00:41.962Z,8.50
2018-08-30T04:03:10.277Z,8.83
2018-08-30T04:05:38.169Z,8.60
2018-08-30T04:08:06.024Z,8.97
2018-08-30T04:10:34.090Z,9.23
2018-08-30T04:13:01.982Z,10.77
2018-08-30T04:15:29.880Z,9.10
2018-08-30T04:17:57.884Z,12.57
2018-08-30T04:20:26.054Z,11.37
2018-08-30T04:22:54.040Z,11.23
2018-08-30T04:25:22.093Z,10.97
2018-08-30T04:27:49.936Z,12.60
2018-08-30T04:30:17.822Z,12.13
2018-08-30T04:32:45.852Z,13.47
2018-08-30T04:35:13.744Z,13.27
2018-08-30T04:37:41.626Z,13.13
2018-08-30T04:40:09.520Z,12.70
2018-08-30T04:42:37.580Z,12.77
2018-08-30T04:45:06.025Z,13.07
2018-08-30T04:47:33.864Z,14.17
2018-08-30T04:50:01.914Z,12.60
2018-08-30T04:52:29.841Z,13.87
2018-08-30T04:54:57.708Z,13.03
2018-08-30T04:57:25.562Z,12.70
2018-08-30T04:59:53.470Z,12.17
2018-08-30T05:02:21.314Z,10.70
2018-08-30T05:04:49.371Z,13.07
2018-08-30T05:07:17.308Z,12.20
2018-08-30T05:09:45.238Z,11.37
2018-08-30T05:12:13.130Z,10.83
2018-08-30T05:14:40.977Z,11.63
2018-08-30T05:17:08.859Z,11.60
2018-08-30T05:19:36.806Z,12.20
2018-08-30T05:22:04.643Z,12.90
2018-08-30T05:24:32.573Z,11.53
2018-08-30T05:27:00.515Z,11.53
2018-08-30T05:29:28.561Z,10.40
2018-08-30T05:31:56.529Z,11.10
2018-08-30T05:34:24.469Z,11.00
2018-08-30T05:36:52.330Z,10.67
2018-08-30T05:39:20.203Z,10.97
2018-08-30T05:41:48.285Z,10.83
2018-08-30T05:44:16.208Z,10.83
2018-08-30T05:46:45.093Z,11.27
2018-08-30T05:49:13.043Z,9.93
2018-08-30T05:51:40.975Z,10.03
2018-08-30T05:54:09.282Z,9.90
2018-08-30T05:56:37.309Z,11.57
2018-08-30T05:59:05.171Z,9.83
2018-08-30T06:01:33.349Z,11.17
2018-08-30T06:04:01.497Z,12.00
2018-08-30T06:06:29.371Z,10.37
2018-08-30T06:08:57.245Z,10.17
2018-08-30T06:11:25.439Z,11.03
2018-08-30T06:13:53.405Z,10.37
2018-08-30T06:16:21.261Z,9.73
2018-08-30T06:18:49.128Z,10.70
2018-08-30T06:21:17.023Z,9.90
2018-08-30T06:23:44.873Z,10.37
2018-08-30T06:26:12.931Z,10.10
2018-08-30T06:28:40.889Z,9.87
2018-08-30T06:31:10.599Z,9.17
2018-08-30T06:33:38.817Z,10.00
2018-08-30T06:36:06.753Z,10.23
2018-08-30T06:38:34.744Z,9.33
2018-08-30T06:41:02.603Z,8.40
2018-08-30T06:43:30.457Z,8.03
2018-08-30T06:45:59.787Z,7.17
2018-08-30T06:48:27.636Z,7.63
2018-08-30T06:50:56.957Z,7.23
2018-08-30T06:53:24.986Z,6.93
2018-08-30T06:55:52.858Z,7.40
2018-08-30T06:58:20.963Z,6.63
2018-08-30T07:00:48.787Z,6.10
2018-08-30T07:03:16.689Z,5.97
2018-08-30T07:05:44.528Z,5.70
2018-08-30T07:08:13.217Z,5.60
2018-08-30T07:10:41.333Z,4.90
2018-08-30T07:13:09.250Z,4.70
2018-08-30T07:15:37.256Z,4.63
2018-08-30T07:18:05.150Z,4.80
2018-08-30T07:20:33.158Z,4.43
2018-08-30T07:23:01.414Z,4.77
2018-08-30T07:25:29.296Z,4.20
2018-08-30T07:27:57.176Z,4.00
2018-08-30T07:30:25.127Z,4.57
2018-08-30T07:32:53.071Z,3.80
2018-08-30T07:35:20.916Z,3.87
2018-08-30T07:37:49.199Z,4.23
2018-08-30T07:40:19.504Z,4.20
2018-08-30T07:42:47.532Z,3.80
2018-08-30T07:45:15.394Z,3.63
2018-08-30T07:47:43.486Z,3.37
2018-08-30T07:50:11.373Z,3.40
2018-08-30T07:52:39.549Z,3.23
2018-08-30T07:55:07.727Z,3.23
2018-08-30T07:57:35.886Z,3.40
2018-08-30T08:00:04.157Z,3.63
2018-08-30T08:02:31.942Z,3.13
2018-08-30T08:05:00.573Z,4.00
2018-08-30T08:07:36.378Z,3.20
2018-08-30T08:10:04.276Z,3.20
2018-08-30T08:12:32.384Z,3.10
2018-08-30T08:15:00.272Z,2.20
2018-08-30T08:17:28.198Z,2.40
2018-08-30T08:19:56.198Z,2.00
2018-08-30T08:22:24.039Z,2.00
2018-08-30T08:24:55.577Z,1.93
2018-08-30T08:27:24.278Z,1.87
2018-08-30T08:29:52.114Z,2.10
2018-08-30T08:32:19.995Z,1.73
2018-08-30T08:34:47.888Z,1.80
2018-08-30T08:37:15.806Z,1.53
2018-08-30T08:39:43.817Z,1.97
2018-08-30T08:42:11.784Z,1.60
2018-08-30T08:44:40.546Z,2.17
2018-08-30T08:47:08.517Z,1.97
2018-08-30T08:49:37.416Z,2.20
2018-08-30T08:52:05.308Z,1.80
2018-08-30T08:54:34.119Z,1.77
2018-08-30T08:57:02.058Z,2.00
2018-08-30T08:59:32.524Z,2.20
2018-08-30T09:02:00.361Z,2.10
2018-08-30T09:04:28.242Z,1.90
2018-08-30T09:06:57.602Z,2.43
2018-08-30T09:09:26.142Z,2.00
2018-08-30T09:12:06.449Z,1.70
2018-08-30T09:17:12.189Z,3.00
2018-08-30T09:19:40.150Z,3.80
2018-08-30T09:22:08.089Z,3.70
2018-08-30T09:24:35.987Z,4.37
2018-08-30T09:27:04.390Z,4.00
2018-08-30T09:29:33.408Z,4.40
2018-08-30T09:32:01.966Z,4.17
2018-08-30T09:34:30.143Z,4.70
2018-08-30T09:36:58.063Z,5.93
2018-08-30T09:39:26.042Z,6.00
2018-08-30T09:41:54.008Z,4.37
2018-08-30T09:44:21.898Z,5.30
2018-08-30T09:46:50.045Z,5.90
2018-08-30T09:49:18.043Z,6.23
2018-08-30T09:51:46.099Z,7.23
2018-08-30T09:54:13.974Z,6.47
2018-08-30T09:56:42.078Z,5.63
2018-08-30T09:59:09.898Z,6.33
2018-08-30T10:01:43.501Z,6.73
2018-08-30T10:04:11.397Z,5.90
2018-08-30T10:06:39.264Z,6.40
2018-08-30T10:09:07.958Z,6.60
2018-08-30T10:11:35.850Z,7.80
2018-08-30T10:14:03.794Z,7.77
2018-08-30T10:16:31.953Z,6.83
2018-08-30T10:19:00.594Z,9.47
2018-08-30T10:21:30.341Z,8.07
2018-08-30T10:23:58.883Z,7.17
2018-08-30T10:26:26.866Z,6.90
2018-08-30T10:28:54.753Z,7.23
2018-08-30T10:31:22.872Z,7.80
2018-08-30T10:33:50.891Z,8.00
2018-08-30T10:36:20.215Z,8.57
2018-08-30T10:38:48.692Z,7.67
2018-08-30T10:41:16.585Z,7.53
2018-08-30T10:43:44.489Z,7.97
2018-08-30T10:46:12.473Z,8.03
2018-08-30T10:48:40.361Z,7.83
2018-08-30T10:51:08.244Z,8.43
2018-08-30T10:53:36.222Z,9.00
2018-08-30T10:56:04.212Z,7.67
2018-08-30T10:58:32.394Z,7.50
2018-08-30T11:01:00.267Z,9.07
2018-08-30T11:03:28.473Z,10.20
2018-08-30T11:05:56.375Z,8.73
2018-08-30T11:08:24.275Z,8.37
2018-08-30T11:10:52.168Z,7.93
2018-08-30T11:13:20.091Z,8.17
2018-08-30T11:15:48.791Z,7.80
2018-08-30T11:18:16.782Z,8.70
2018-08-30T11:20:44.911Z,8.27
2018-08-30T11:23:12.892Z,7.53
2018-08-30T11:25:40.809Z,8.37
2018-08-30T11:28:09.203Z,8.10
2018-08-30T11:30:37.139Z,7.23
2018-08-30T11:33:06.993Z,8.40
2018-08-30T11:35:34.913Z,8.83
2018-08-30T11:38:02.894Z,8.27
2018-08-30T11:40:31.042Z,7.60
2018-08-30T11:42:59.084Z,8.43
2018-08-30T11:45:27.084Z,8.20
2018-08-30T11:47:56.014Z,7.97
2018-08-30T11:50:24.395Z,7.93
2018-08-30T11:52:52.276Z,7.80
2018-08-30T11:55:20.152Z,6.97
2018-08-30T11:57:48.062Z,7.77
2018-08-30T12:05:21.228Z,7.00
2018-08-30T12:07:49.618Z,6.57
2018-08-30T12:10:17.527Z,6.90
2018-08-30T12:12:45.608Z,6.00
2018-08-30T12:15:13.554Z,7.77
2018-08-30T12:17:42.672Z,8.70
2018-08-30T12:20:10.548Z,5.73
2018-08-30T12:22:38.428Z,6.10
2018-08-30T12:25:06.523Z,6.50
2018-08-30T12:27:34.402Z,6.37
2018-08-30T12:30:02.333Z,5.03
2018-08-30T12:32:30.400Z,6.50
2018-08-30T12:34:58.311Z,6.03
2018-08-30T12:37:26.209Z,6.22
2018-08-30T12:39:54.633Z,6.03
2018-08-30T12:42:22.870Z,6.65
2018-08-30T12:44:51.398Z,6.72
2018-08-30T12:47:19.994Z,6.60
2018-08-30T12:49:48.451Z,6.05
2018-08-30T12:52:16.589Z,5.65
2018-08-30T12:54:44.650Z,6.42
2018-08-30T12:57:13.244Z,6.10
2018-08-30T12:59:42.711Z,6.08
2018-08-30T13:04:34.739Z,5.75
2018-08-30T13:07:02.506Z,6.70
2018-08-30T13:09:30.537Z,5.95
2018-08-30T13:11:59.707Z,5.90
2018-08-30T13:14:28.338Z,14.55
2018-08-30T13:16:56.564Z,6.62
2018-08-30T13:19:25.019Z,6.47
2018-08-30T13:21:52.940Z,5.93
2018-08-30T13:24:21.686Z,6.07
2018-08-30T13:26:49.482Z,6.60
2018-08-30T13:29:17.742Z,6.00
2018-08-30T13:31:45.844Z,8.57
2018-08-30T13:34:14.820Z,7.13
2018-08-30T13:36:42.665Z,6.53
2018-08-30T13:39:13.082Z,7.07
2018-08-30T13:41:41.421Z,6.63
2018-08-30T13:44:10.302Z,6.50
2018-08-30T13:46:39.482Z,7.83
2018-08-30T13:49:07.584Z,6.93
2018-08-30T13:51:35.691Z,6.83
2018-08-30T13:54:05.128Z,6.63
2018-08-30T13:56:33.075Z,7.30
2018-08-30T13:59:00.948Z,7.00
2018-08-30T14:01:29.450Z,6.83
2018-08-30T14:03:57.420Z,7.00
2018-08-30T14:06:25.414Z,6.40
2018-08-30T14:08:54.794Z,6.77
2018-08-30T14:11:23.050Z,6.10
2018-08-30T14:13:50.957Z,6.73
2018-08-30T14:16:18.716Z,6.33
2018-08-30T14:18:47.074Z,6.90
2018-08-30T14:21:15.000Z,6.57
2018-08-30T14:23:42.871Z,6.70
2018-08-30T14:26:10.768Z,7.43
2018-08-30T14:28:38.589Z,6.50
2018-08-30T14:31:06.472Z,6.80
2018-08-30T14:33:34.383Z,7.70
2018-08-30T14:36:02.362Z,6.73
2018-08-30T14:38:30.266Z,6.63
2018-08-30T14:40:58.958Z,10.50
2018-08-30T14:43:27.103Z,6.90
2018-08-30T14:45:55.118Z,7.07
2018-08-30T14:48:23.079Z,7.83
2018-08-30T14:50:51.041Z,6.40
2018-08-30T14:53:20.007Z,6.30
2018-08-30T14:55:47.964Z,6.47
2018-08-30T14:58:16.059Z,6.20
2018-08-30T15:00:47.056Z,7.10
2018-08-30T15:03:16.275Z,6.87
2018-08-30T15:05:44.296Z,7.80
2018-08-30T15:08:12.166Z,8.70
2018-08-30T15:10:40.080Z,7.50
2018-08-30T15:13:07.996Z,6.97
2018-08-30T15:15:35.863Z,8.30
2018-08-30T15:18:10.414Z,7.17
2018-08-30T15:20:38.326Z,7.20
2018-08-30T15:23:06.492Z,7.20
2018-08-30T15:25:37.182Z,7.97
2018-08-30T15:28:09.145Z,7.47
2018-08-30T15:30:37.099Z,7.23
2018-08-30T15:33:05.274Z,6.50
2018-08-30T15:35:33.141Z,7.37
2018-08-30T15:38:01.040Z,6.70
2018-08-30T15:40:31.686Z,7.43
2018-08-30T15:43:10.480Z,6.70
2018-08-30T15:45:38.508Z,7.07
2018-08-30T15:48:06.452Z,6.90
2018-08-30T15:50:34.420Z,7.70
2018-08-30T15:53:02.658Z,7.30
2018-08-30T15:55:42.734Z,7.70
2018-08-30T15:58:15.453Z,7.57
2018-08-30T16:00:47.257Z,7.03
2018-08-30T16:03:17.699Z,8.40
2018-08-30T16:05:46.627Z,7.70
2018-08-30T16:08:14.929Z,8.07
2018-08-30T16:10:42.787Z,7.90
2018-08-30T16:13:10.843Z,7.57
2018-08-30T16:15:38.707Z,8.20
2018-08-30T16:18:10.454Z,8.30
2018-08-30T16:20:41.878Z,8.57
2018-08-30T16:23:15.685Z,8.67
2018-08-30T16:25:43.690Z,10.07
2018-08-30T16:28:11.639Z,10.57
2018-08-30T16:30:39.739Z,9.40
2018-08-30T16:33:10.104Z,8.73
2018-08-30T16:35:50.316Z,11.40
2018-08-30T16:38:19.017Z,8.53
2018-08-30T16:40:47.147Z,7.90
2018-08-30T16:43:15.097Z,7.87
2018-08-30T16:45:43.867Z,20.60
2018-08-30T16:48:13.905Z,11.97
2018-08-30T16:50:43.012Z,8.17
2018-08-30T16:53:11.201Z,7.40
2018-08-30T16:55:39.424Z,8.50
2018-08-30T16:58:07.224Z,8.07
2018-08-30T17:00:35.188Z,9.03
2018-08-30T17:03:11.979Z,8.30
2018-08-30T17:05:43.545Z,13.13
2018-08-30T17:08:11.333Z,7.77
2018-08-30T17:10:39.292Z,7.10
2018-08-30T17:13:07.308Z,7.43
2018-08-30T17:15:35.192Z,7.87
2018-08-30T17:18:08.061Z,8.30
2018-08-30T17:20:42.958Z,7.93
2018-08-30T17:23:11.443Z,7.70
2018-08-30T17:25:39.793Z,9.37
2018-08-30T17:28:10.918Z,8.93
2018-08-30T17:30:45.651Z,8.63
2018-08-30T17:33:13.982Z,7.60
2018-08-30T17:35:41.873Z,7.93
2018-08-30T17:38:09.757Z,8.27
2018-08-30T17:40:37.721Z,8.63
2018-08-30T17:43:13.545Z,9.17
2018-08-30T17:45:41.616Z,7.87
2018-08-30T17:48:09.579Z,7.80
2018-08-30T17:50:37.642Z,8.50
2018-08-30T17:53:05.522Z,7.63
2018-08-30T17:55:34.492Z,7.83
2018-08-30T17:58:02.462Z,8.77
2018-08-30T18:00:36.413Z,10.03
2018-08-30T18:03:07.102Z,8.17
2018-08-30T18:05:35.394Z,7.93
2018-08-30T18:08:03.491Z,7.70
2018-08-30T18:10:31.418Z,9.20
2018-08-30T18:12:59.311Z,9.27
2018-08-30T18:15:28.843Z,8.37
2018-08-30T18:18:03.708Z,9.27
2018-08-30T18:20:33.944Z,9.97
2018-08-30T18:23:07.061Z,11.43
2018-08-30T18:25:34.934Z,8.17
2018-08-30T18:28:03.048Z,8.40
2018-08-30T18:30:30.962Z,8.53
2018-08-30T18:32:58.870Z,8.70
2018-08-30T18:35:30.725Z,8.10
2018-08-30T18:37:58.828Z,9.33
2018-08-30T18:40:26.830Z,9.13
2018-08-30T18:42:54.937Z,7.93
2018-08-30T18:45:22.963Z,8.10
2018-08-30T18:47:51.971Z,7.70
2018-08-30T18:50:25.445Z,9.67
2018-08-30T18:52:58.593Z,9.03
2018-08-30T18:55:28.404Z,8.27
2018-08-30T18:57:56.929Z,7.93
2018-08-30T19:00:32.996Z,8.73
2018-08-30T19:03:01.994Z,8.60
2018-08-30T19:05:32.434Z,8.90
2018-08-30T19:08:01.788Z,8.27
2018-08-30T19:10:32.632Z,7.45
2018-08-30T19:13:02.715Z,9.37
2018-08-30T19:15:36.772Z,9.77
2018-08-30T19:18:10.983Z,7.87
2018-08-30T19:20:40.785Z,8.47
2018-08-30T19:23:09.084Z,10.03
2018-08-30T19:25:38.012Z,7.87
2018-08-30T19:28:07.453Z,9.57
2018-08-30T19:30:36.048Z,9.03
2018-08-30T19:33:05.056Z,9.27
2018-08-30T19:35:40.153Z,10.20
2018-08-30T19:38:08.466Z,9.57
2018-08-30T19:40:43.828Z,10.17
2018-08-30T19:43:12.326Z,12.17
2018-08-30T19:45:41.185Z,11.57
2018-08-30T19:48:09.162Z,11.03
2018-08-30T19:50:37.660Z,10.93
2018-08-30T19:53:06.476Z,10.43
2018-08-30T19:55:35.658Z,10.90
2018-08-30T19:58:06.384Z,10.40
2018-08-30T20:00:34.902Z,10.30
2018-08-30T20:03:02.896Z,10.10
2018-08-30T20:05:32.124Z,12.27
2018-08-30T20:08:00.773Z,10.80
2018-08-30T20:10:29.268Z,15.03
2018-08-30T20:12:57.608Z,15.77
2018-08-30T20:15:28.070Z,12.27
2018-08-30T20:18:01.033Z,10.70
2018-08-30T20:20:32.266Z,12.93
2018-08-30T20:23:03.694Z,29.07
2018-08-30T20:25:35.612Z,22.13
2018-08-30T20:28:04.933Z,12.53
2018-08-30T20:30:33.674Z,11.53
2018-08-30T20:33:01.991Z,11.57
2018-08-30T20:35:29.990Z,12.50
2018-08-30T20:37:58.177Z,11.53
2018-08-30T20:40:26.445Z,10.53
2018-08-30T20:42:54.555Z,10.90
2018-08-30T20:45:22.556Z,9.83
2018-08-30T20:47:50.740Z,10.67
2018-08-30T20:50:20.017Z,10.70
2018-08-30T20:52:48.654Z,10.97
2018-08-30T20:55:17.309Z,11.30
2018-08-30T20:57:45.410Z,10.53
2018-08-30T21:00:14.016Z,11.43
2018-08-30T21:02:43.276Z,10.67
2018-08-30T21:05:11.326Z,9.80
2018-08-30T21:07:40.057Z,9.77
2018-08-30T21:10:08.526Z,10.27
2018-08-30T21:12:36.558Z,10.83
2018-08-30T21:15:06.458Z,8.83
2018-08-30T21:17:35.387Z,10.07
2018-08-30T21:20:03.479Z,9.63
2018-08-30T21:22:33.503Z,10.47
2018-08-30T21:25:01.420Z,10.60
2018-08-30T21:27:30.160Z,9.60
2018-08-30T21:30:01.023Z,9.63
2018-08-30T21:32:28.997Z,9.83
2018-08-30T21:34:56.949Z,10.03
2018-08-30T21:37:24.968Z,9.37
2018-08-30T21:39:53.028Z,9.07
2018-08-30T21:42:21.214Z,9.43
2018-08-30T21:44:49.485Z,9.10
2018-08-30T21:47:18.293Z,9.63
2018-08-30T21:49:46.155Z,10.23
2018-08-30T21:52:14.079Z,8.10
2018-08-30T21:54:42.017Z,10.10
2018-08-30T21:57:10.275Z,13.60
2018-08-30T21:59:38.354Z,9.77
2018-08-30T22:02:06.284Z,8.70
2018-08-30T22:04:34.167Z,9.53
2018-08-30T22:07:02.075Z,8.37
2018-08-30T22:09:30.363Z,9.50
2018-08-30T22:11:58.292Z,8.73
2018-08-30T22:14:26.356Z,9.07
2018-08-30T22:16:54.431Z,8.93
2018-08-30T22:19:22.609Z,8.80
2018-08-30T22:21:50.662Z,10.20
2018-08-30T22:24:18.642Z,9.40
2018-08-30T22:26:46.531Z,9.50
2018-08-30T22:29:14.947Z,9.70
2018-08-30T22:31:42.851Z,10.20
2018-08-30T22:34:10.753Z,10.77
2018-08-30T22:36:38.685Z,10.03
2018-08-30T22:39:06.897Z,10.23
2018-08-30T22:41:34.855Z,9.43
2018-08-30T22:44:02.989Z,9.13
2018-08-30T22:46:32.197Z,9.43
2018-08-30T22:49:00.135Z,9.53
2018-08-30T22:51:28.037Z,9.60
2018-08-30T22:53:56.152Z,8.73
2018-08-30T22:56:24.062Z,9.80
2018-08-30T22:58:52.080Z,9.27
2018-08-30T23:01:20.830Z,10.83
2018-08-30T23:03:48.783Z,9.43
2018-08-30T23:06:16.676Z,9.47
2018-08-30T23:08:44.635Z,9.47
2018-08-30T23:11:12.619Z,9.50
2018-08-30T23:13:41.763Z,9.97
2018-08-30T23:16:09.940Z,9.97
2018-08-30T23:18:37.870Z,9.13
2018-08-30T23:21:05.985Z,10.30
2018-08-30T23:23:33.914Z,8.60
2018-08-30T23:26:01.853Z,9.70
2018-08-30T23:28:29.736Z,9.90
2018-08-30T23:30:57.635Z,9.77
2018-08-30T23:33:25.733Z,8.97
2018-08-30T23:35:53.714Z,10.00
2018-08-30T23:38:21.698Z,8.53
2018-08-30T23:40:49.599Z,8.03
2018-08-30T23:43:17.551Z,8.40
2018-08-30T23:45:47.036Z,7.50
2018-08-30T23:48:15.115Z,9.00
2018-08-30T23:50:43.037Z,8.33
2018-08-30T23:53:11.023Z,8.83
2018-08-30T23:55:38.874Z,8.67
2018-08-30T23:58:12.413Z,9.00
